sensor_id;sensor_type;location;lat;lon;timestamp;P1;durP1;ratioP1;P2;durP2;ratioP2
62788;SDS011;66401;42.016;21.454;2023-04-01T00:01:22;12.93;;;5.30;;
62788;SDS011;66401;42.016;21.454;2023-04-01T00:03:47;8.40;;;5.57;;
62788;SDS011;66401;42.016;21.454;2023-04-01T00:06:14;10.67;;;5.27;;
62788;SDS011;66401;42.016;21.454;2023-04-01T00:08:41;8.33;;;5.33;;
62788;SDS011;66401;42.016;21.454;2023-04-01T00:11:06;14.33;;;4.50;;
62788;SDS011;66401;42.016;21.454;2023-04-01T00:13:32;11.63;;;4.43;;
62788;SDS011;66401;42.016;21.454;2023-04-01T00:15:57;8.63;;;4.77;;
62788;SDS011;66401;42.016;21.454;2023-04-01T00:18:23;7.27;;;4.33;;
62788;SDS011;66401;42.016;21.454;2023-04-01T00:20:50;6.97;;;4.10;;
62788;SDS011;66401;42.016;21.454;2023-04-01T00:23:17;8.20;;;4.57;;
62788;SDS011;66401;42.016;21.454;2023-04-01T00:25:44;7.93;;;4.27;;
62788;SDS011;66401;42.016;21.454;2023-04-01T00:28:12;6.33;;;4.90;;
62788;SDS011;66401;42.016;21.454;2023-04-01T00:30:37;8.10;;;3.93;;
62788;SDS011;66401;42.016;21.454;2023-04-01T00:33:03;5.97;;;4.37;;
62788;SDS011;66401;42.016;21.454;2023-04-01T00:35:29;5.57;;;4.50;;
62788;SDS011;66401;42.016;21.454;2023-04-01T00:37:54;8.60;;;4.50;;
62788;SDS011;66401;42.016;21.454;2023-04-01T00:40:33;8.57;;;4.90;;
62788;SDS011;66401;42.016;21.454;2023-04-01T00:46:01;5.90;;;4.37;;
62788;SDS011;66401;42.016;21.454;2023-04-01T00:48:59;9.00;;;4.73;;
62788;SDS011;66401;42.016;21.454;2023-04-01T00:51:22;7.13;;;4.13;;
62788;SDS011;66401;42.016;21.454;2023-04-01T00:53:51;9.90;;;4.80;;
62788;SDS011;66401;42.016;21.454;2023-04-01T00:56:22;10.13;;;4.43;;
62788;SDS011;66401;42.016;21.454;2023-04-01T00:58:57;10.03;;;4.77;;
62788;SDS011;66401;42.016;21.454;2023-04-01T01:01:30;7.10;;;4.00;;
62788;SDS011;66401;42.016;21.454;2023-04-01T01:03:56;7.97;;;4.10;;
62788;SDS011;66401;42.016;21.454;2023-04-01T01:36:44;6.33;;;3.90;;
62788;SDS011;66401;42.016;21.454;2023-04-01T01:39:13;6.93;;;4.53;;
62788;SDS011;66401;42.016;21.454;2023-04-01T01:41:39;7.60;;;4.73;;
62788;SDS011;66401;42.016;21.454;2023-04-01T01:44:08;7.27;;;4.17;;
62788;SDS011;66401;42.016;21.454;2023-04-01T01:46:38;7.87;;;3.77;;
62788;SDS011;66401;42.016;21.454;2023-04-01T01:49:05;7.77;;;4.60;;
62788;SDS011;66401;42.016;21.454;2023-04-01T01:51:34;8.37;;;4.93;;
62788;SDS011;66401;42.016;21.454;2023-04-01T01:54:00;7.13;;;4.60;;
62788;SDS011;66401;42.016;21.454;2023-04-01T01:56:26;8.53;;;4.07;;
62788;SDS011;66401;42.016;21.454;2023-04-01T01:58:58;7.60;;;3.90;;
62788;SDS011;66401;42.016;21.454;2023-04-01T02:01:28;8.37;;;3.90;;
62788;SDS011;66401;42.016;21.454;2023-04-01T02:03:56;9.47;;;3.77;;
62788;SDS011;66401;42.016;21.454;2023-04-01T02:06:23;6.30;;;3.13;;
62788;SDS011;66401;42.016;21.454;2023-04-01T02:08:56;7.77;;;3.60;;
62788;SDS011;66401;42.016;21.454;2023-04-01T02:11:46;8.63;;;4.20;;
62788;SDS011;66401;42.016;21.454;2023-04-01T02:16:57;5.67;;;3.63;;
62788;SDS011;66401;42.016;21.454;2023-04-01T02:19:24;7.07;;;3.87;;
62788;SDS011;66401;42.016;21.454;2023-04-01T02:21:57;7.07;;;3.70;;
62788;SDS011;66401;42.016;21.454;2023-04-01T02:24:26;9.73;;;3.90;;
62788;SDS011;66401;42.016;21.454;2023-04-01T02:26:54;6.13;;;4.37;;
62788;SDS011;66401;42.016;21.454;2023-04-01T02:29:20;5.60;;;3.73;;
62788;SDS011;66401;42.016;21.454;2023-04-01T02:31:48;5.47;;;3.63;;
62788;SDS011;66401;42.016;21.454;2023-04-01T02:34:15;4.77;;;4.27;;
62788;SDS011;66401;42.016;21.454;2023-04-01T02:36:41;5.10;;;4.13;;
62788;SDS011;66401;42.016;21.454;2023-04-01T02:39:07;8.53;;;4.80;;
62788;SDS011;66401;42.016;21.454;2023-04-01T02:41:40;8.53;;;4.87;;
62788;SDS011;66401;42.016;21.454;2023-04-01T02:44:07;12.10;;;5.73;;
62788;SDS011;66401;42.016;21.454;2023-04-01T02:46:33;8.77;;;4.67;;
62788;SDS011;66401;42.016;21.454;2023-04-01T02:48:58;9.37;;;4.07;;
62788;SDS011;66401;42.016;21.454;2023-04-01T02:51:25;8.73;;;4.13;;
62788;SDS011;66401;42.016;21.454;2023-04-01T02:53:51;10.97;;;4.53;;
62788;SDS011;66401;42.016;21.454;2023-04-01T02:56:16;6.87;;;4.77;;
62788;SDS011;66401;42.016;21.454;2023-04-01T02:58:42;6.47;;;4.07;;
62788;SDS011;66401;42.016;21.454;2023-04-01T03:01:08;6.50;;;4.33;;
62788;SDS011;66401;42.016;21.454;2023-04-01T03:03:33;6.67;;;4.63;;
62788;SDS011;66401;42.016;21.454;2023-04-01T03:06:04;8.97;;;4.70;;
62788;SDS011;66401;42.016;21.454;2023-04-01T03:08:33;8.03;;;4.27;;
62788;SDS011;66401;42.016;21.454;2023-04-01T03:10:59;6.70;;;4.33;;
62788;SDS011;66401;42.016;21.454;2023-04-01T03:13:25;7.20;;;4.53;;
62788;SDS011;66401;42.016;21.454;2023-04-01T03:15:50;5.43;;;4.10;;
62788;SDS011;66401;42.016;21.454;2023-04-01T03:18:16;5.33;;;4.07;;
62788;SDS011;66401;42.016;21.454;2023-04-01T03:20:41;7.47;;;4.40;;
62788;SDS011;66401;42.016;21.454;2023-04-01T03:23:07;12.53;;;5.10;;
62788;SDS011;66401;42.016;21.454;2023-04-01T03:25:33;6.50;;;4.53;;
62788;SDS011;66401;42.016;21.454;2023-04-01T03:27:58;9.57;;;4.00;;
62788;SDS011;66401;42.016;21.454;2023-04-01T03:30:24;11.70;;;4.67;;
62788;SDS011;66401;42.016;21.454;2023-04-01T03:32:50;9.63;;;4.83;;
62788;SDS011;66401;42.016;21.454;2023-04-01T03:35:17;9.57;;;4.70;;
62788;SDS011;66401;42.016;21.454;2023-04-01T03:37:43;7.47;;;4.30;;
62788;SDS011;66401;42.016;21.454;2023-04-01T03:40:09;15.03;;;5.50;;
62788;SDS011;66401;42.016;21.454;2023-04-01T03:42:35;8.80;;;4.57;;
62788;SDS011;66401;42.016;21.454;2023-04-01T03:45:00;5.73;;;4.23;;
62788;SDS011;66401;42.016;21.454;2023-04-01T03:47:27;11.27;;;4.77;;
62788;SDS011;66401;42.016;21.454;2023-04-01T03:49:53;7.33;;;4.33;;
62788;SDS011;66401;42.016;21.454;2023-04-01T03:52:18;8.53;;;4.87;;
62788;SDS011;66401;42.016;21.454;2023-04-01T03:54:44;8.40;;;4.93;;
62788;SDS011;66401;42.016;21.454;2023-04-01T03:57:10;13.03;;;4.67;;
62788;SDS011;66401;42.016;21.454;2023-04-01T03:59:35;7.67;;;4.47;;
62788;SDS011;66401;42.016;21.454;2023-04-01T04:02:01;11.13;;;4.73;;
62788;SDS011;66401;42.016;21.454;2023-04-01T04:04:26;15.47;;;5.50;;
62788;SDS011;66401;42.016;21.454;2023-04-01T04:06:52;16.93;;;5.80;;
62788;SDS011;66401;42.016;21.454;2023-04-01T04:09:18;9.20;;;5.03;;
62788;SDS011;66401;42.016;21.454;2023-04-01T04:11:43;8.23;;;4.83;;
62788;SDS011;66401;42.016;21.454;2023-04-01T04:14:08;7.77;;;4.87;;
62788;SDS011;66401;42.016;21.454;2023-04-01T04:16:35;9.80;;;5.07;;
62788;SDS011;66401;42.016;21.454;2023-04-01T04:19:02;8.63;;;4.60;;
62788;SDS011;66401;42.016;21.454;2023-04-01T04:21:28;6.30;;;4.60;;
62788;SDS011;66401;42.016;21.454;2023-04-01T04:23:53;9.87;;;5.03;;
62788;SDS011;66401;42.016;21.454;2023-04-01T04:26:19;11.30;;;4.53;;
62788;SDS011;66401;42.016;21.454;2023-04-01T04:28:44;9.30;;;4.53;;
62788;SDS011;66401;42.016;21.454;2023-04-01T04:31:10;9.63;;;4.47;;
62788;SDS011;66401;42.016;21.454;2023-04-01T04:33:36;11.53;;;5.00;;
62788;SDS011;66401;42.016;21.454;2023-04-01T04:36:02;10.10;;;5.00;;
62788;SDS011;66401;42.016;21.454;2023-04-01T04:38:29;8.57;;;5.10;;
62788;SDS011;66401;42.016;21.454;2023-04-01T04:40:55;8.97;;;4.97;;
62788;SDS011;66401;42.016;21.454;2023-04-01T04:43:20;9.20;;;5.10;;
62788;SDS011;66401;42.016;21.454;2023-04-01T04:45:46;8.73;;;4.83;;
62788;SDS011;66401;42.016;21.454;2023-04-01T04:48:12;13.30;;;5.10;;
62788;SDS011;66401;42.016;21.454;2023-04-01T04:50:43;9.83;;;4.30;;
62788;SDS011;66401;42.016;21.454;2023-04-01T04:53:10;7.13;;;4.07;;
62788;SDS011;66401;42.016;21.454;2023-04-01T04:55:36;12.97;;;5.67;;
62788;SDS011;66401;42.016;21.454;2023-04-01T04:58:03;9.97;;;5.37;;
62788;SDS011;66401;42.016;21.454;2023-04-01T05:00:29;8.90;;;5.60;;
62788;SDS011;66401;42.016;21.454;2023-04-01T05:02:54;9.73;;;5.40;;
62788;SDS011;66401;42.016;21.454;2023-04-01T05:05:21;11.00;;;5.47;;
62788;SDS011;66401;42.016;21.454;2023-04-01T05:07:46;10.53;;;5.17;;
62788;SDS011;66401;42.016;21.454;2023-04-01T05:10:12;10.00;;;5.17;;
62788;SDS011;66401;42.016;21.454;2023-04-01T05:12:37;16.67;;;5.93;;
62788;SDS011;66401;42.016;21.454;2023-04-01T05:15:07;8.47;;;5.60;;
62788;SDS011;66401;42.016;21.454;2023-04-01T05:17:33;13.40;;;5.70;;
62788;SDS011;66401;42.016;21.454;2023-04-01T05:19:59;11.63;;;4.77;;
62788;SDS011;66401;42.016;21.454;2023-04-01T05:22:25;9.40;;;4.63;;
62788;SDS011;66401;42.016;21.454;2023-04-01T05:24:51;11.13;;;5.03;;
62788;SDS011;66401;42.016;21.454;2023-04-01T05:27:16;10.37;;;4.97;;
62788;SDS011;66401;42.016;21.454;2023-04-01T05:29:42;17.53;;;5.07;;
62788;SDS011;66401;42.016;21.454;2023-04-01T05:32:07;5.53;;;4.37;;
62788;SDS011;66401;42.016;21.454;2023-04-01T05:34:33;12.37;;;4.57;;
62788;SDS011;66401;42.016;21.454;2023-04-01T05:36:58;9.43;;;4.80;;
62788;SDS011;66401;42.016;21.454;2023-04-01T05:39:24;12.43;;;4.17;;
62788;SDS011;66401;42.016;21.454;2023-04-01T05:41:50;11.77;;;4.33;;
62788;SDS011;66401;42.016;21.454;2023-04-01T05:44:15;10.83;;;4.37;;
62788;SDS011;66401;42.016;21.454;2023-04-01T05:46:41;6.80;;;4.10;;
62788;SDS011;66401;42.016;21.454;2023-04-01T05:49:07;13.87;;;4.73;;
62788;SDS011;66401;42.016;21.454;2023-04-01T05:51:32;17.33;;;6.70;;
62788;SDS011;66401;42.016;21.454;2023-04-01T05:53:58;14.57;;;5.87;;
62788;SDS011;66401;42.016;21.454;2023-04-01T05:56:23;11.77;;;6.27;;
62788;SDS011;66401;42.016;21.454;2023-04-01T05:58:50;16.50;;;6.23;;
62788;SDS011;66401;42.016;21.454;2023-04-01T06:01:18;13.40;;;6.10;;
62788;SDS011;66401;42.016;21.454;2023-04-01T06:03:44;10.53;;;5.43;;
62788;SDS011;66401;42.016;21.454;2023-04-01T06:06:22;10.23;;;4.50;;
62788;SDS011;66401;42.016;21.454;2023-04-01T06:08:50;10.90;;;4.57;;
62788;SDS011;66401;42.016;21.454;2023-04-01T06:38:28;13.20;;;4.53;;
62788;SDS011;66401;42.016;21.454;2023-04-01T06:46:41;6.13;;;3.07;;
62788;SDS011;66401;42.016;21.454;2023-04-01T06:54:51;4.73;;;2.53;;
62788;SDS011;66401;42.016;21.454;2023-04-01T06:59:49;9.97;;;3.20;;
62788;SDS011;66401;42.016;21.454;2023-04-01T07:02:25;3.17;;;2.83;;
62788;SDS011;66401;42.016;21.454;2023-04-01T07:04:59;7.67;;;3.40;;
62788;SDS011;66401;42.016;21.454;2023-04-01T07:10:18;3.87;;;2.90;;
62788;SDS011;66401;42.016;21.454;2023-04-01T07:12:58;6.67;;;3.30;;
62788;SDS011;66401;42.016;21.454;2023-04-01T07:17:56;4.83;;;3.00;;
62788;SDS011;66401;42.016;21.454;2023-04-01T07:20:32;10.23;;;3.20;;
62788;SDS011;66401;42.016;21.454;2023-04-01T07:23:01;7.47;;;3.57;;
62788;SDS011;66401;42.016;21.454;2023-04-01T07:25:36;4.37;;;3.60;;
62788;SDS011;66401;42.016;21.454;2023-04-01T07:28:11;7.17;;;3.60;;
62788;SDS011;66401;42.016;21.454;2023-04-01T07:36:14;9.50;;;2.80;;
62788;SDS011;66401;42.016;21.454;2023-04-01T07:44:02;4.50;;;3.00;;
62788;SDS011;66401;42.016;21.454;2023-04-01T07:49:17;7.13;;;3.80;;
62788;SDS011;66401;42.016;21.454;2023-04-01T07:55:21;6.00;;;3.33;;
62788;SDS011;66401;42.016;21.454;2023-04-01T08:06:08;6.77;;;3.10;;
62788;SDS011;66401;42.016;21.454;2023-04-01T08:09:23;6.17;;;3.40;;
62788;SDS011;66401;42.016;21.454;2023-04-01T08:17:05;5.87;;;3.13;;
62788;SDS011;66401;42.016;21.454;2023-04-01T08:22:33;6.17;;;2.60;;
62788;SDS011;66401;42.016;21.454;2023-04-01T08:25:05;5.83;;;2.90;;
62788;SDS011;66401;42.016;21.454;2023-04-01T08:27:37;5.43;;;3.33;;
62788;SDS011;66401;42.016;21.454;2023-04-01T08:30:21;5.60;;;3.10;;
62788;SDS011;66401;42.016;21.454;2023-04-01T08:32:53;4.77;;;2.87;;
62788;SDS011;66401;42.016;21.454;2023-04-01T08:38:40;4.90;;;2.27;;
62788;SDS011;66401;42.016;21.454;2023-04-01T08:43:45;4.63;;;2.50;;
62788;SDS011;66401;42.016;21.454;2023-04-01T08:47:16;4.17;;;2.33;;
62788;SDS011;66401;42.016;21.454;2023-04-01T08:55:05;4.83;;;2.53;;
62788;SDS011;66401;42.016;21.454;2023-04-01T08:57:49;7.33;;;2.37;;
62788;SDS011;66401;42.016;21.454;2023-04-01T09:16:00;4.50;;;2.43;;
62788;SDS011;66401;42.016;21.454;2023-04-01T09:24:21;4.40;;;2.07;;
62788;SDS011;66401;42.016;21.454;2023-04-01T09:27:03;4.87;;;2.23;;
62788;SDS011;66401;42.016;21.454;2023-04-01T09:32:20;7.17;;;2.40;;
62788;SDS011;66401;42.016;21.454;2023-04-01T09:34:52;5.93;;;2.73;;
62788;SDS011;66401;42.016;21.454;2023-04-01T10:06:58;7.60;;;3.57;;
62788;SDS011;66401;42.016;21.454;2023-04-01T10:32:14;5.20;;;2.30;;
62788;SDS011;66401;42.016;21.454;2023-04-01T10:43:35;4.93;;;2.50;;
62788;SDS011;66401;42.016;21.454;2023-04-01T11:44:26;1.47;;;1.10;;
62788;SDS011;66401;42.016;21.454;2023-04-01T11:47:38;3.93;;;1.20;;
62788;SDS011;66401;42.016;21.454;2023-04-01T11:55:28;0.70;;;0.70;;
62788;SDS011;66401;42.016;21.454;2023-04-01T12:07:26;2.23;;;1.57;;
62788;SDS011;66401;42.016;21.454;2023-04-01T12:15:20;2.40;;;1.60;;
62788;SDS011;66401;42.016;21.454;2023-04-01T12:25:55;1.50;;;1.33;;
62788;SDS011;66401;42.016;21.454;2023-04-01T12:44:22;1.30;;;0.70;;
62788;SDS011;66401;42.016;21.454;2023-04-01T12:55:38;1.47;;;1.20;;
62788;SDS011;66401;42.016;21.454;2023-04-01T13:17:32;2.93;;;1.10;;
62788;SDS011;66401;42.016;21.454;2023-04-01T13:20:03;1.30;;;1.20;;
62788;SDS011;66401;42.016;21.454;2023-04-01T13:23:27;1.53;;;1.40;;
62788;SDS011;66401;42.016;21.454;2023-04-01T13:28:16;2.23;;;1.13;;
62788;SDS011;66401;42.016;21.454;2023-04-01T13:30:50;2.10;;;1.30;;
62788;SDS011;66401;42.016;21.454;2023-04-01T13:33:53;3.07;;;1.23;;
62788;SDS011;66401;42.016;21.454;2023-04-01T13:44:51;1.23;;;1.13;;
62788;SDS011;66401;42.016;21.454;2023-04-01T13:50:31;5.57;;;1.97;;
62788;SDS011;66401;42.016;21.454;2023-04-01T13:53:18;2.73;;;1.57;;
62788;SDS011;66401;42.016;21.454;2023-04-01T13:58:53;3.13;;;1.70;;
62788;SDS011;66401;42.016;21.454;2023-04-01T14:12:01;1.73;;;1.63;;
62788;SDS011;66401;42.016;21.454;2023-04-01T14:14:47;4.00;;;1.83;;
62788;SDS011;66401;42.016;21.454;2023-04-01T14:23:13;2.10;;;1.60;;
62788;SDS011;66401;42.016;21.454;2023-04-01T14:43:22;3.13;;;1.77;;
62788;SDS011;66401;42.016;21.454;2023-04-01T14:56:36;2.10;;;1.53;;
62788;SDS011;66401;42.016;21.454;2023-04-01T14:59:04;4.27;;;2.07;;
62788;SDS011;66401;42.016;21.454;2023-04-01T15:01:43;3.63;;;1.73;;
62788;SDS011;66401;42.016;21.454;2023-04-01T15:31:32;3.57;;;1.70;;
62788;SDS011;66401;42.016;21.454;2023-04-01T15:36:41;2.90;;;1.70;;
62788;SDS011;66401;42.016;21.454;2023-04-01T15:42:22;4.50;;;1.70;;
62788;SDS011;66401;42.016;21.454;2023-04-01T15:50:02;1.73;;;1.57;;
62788;SDS011;66401;42.016;21.454;2023-04-01T15:52:44;2.03;;;1.40;;
62788;SDS011;66401;42.016;21.454;2023-04-01T15:55:39;1.70;;;1.37;;
62788;SDS011;66401;42.016;21.454;2023-04-01T16:17:48;4.10;;;1.53;;
62788;SDS011;66401;42.016;21.454;2023-04-01T16:20:42;1.53;;;1.17;;
62788;SDS011;66401;42.016;21.454;2023-04-01T16:23:51;1.50;;;1.27;;
62788;SDS011;66401;42.016;21.454;2023-04-01T16:26:24;1.30;;;1.20;;
62788;SDS011;66401;42.016;21.454;2023-04-01T16:28:57;2.27;;;1.50;;
62788;SDS011;66401;42.016;21.454;2023-04-01T16:31:35;1.80;;;1.30;;
62788;SDS011;66401;42.016;21.454;2023-04-01T16:34:19;4.67;;;1.60;;
62788;SDS011;66401;42.016;21.454;2023-04-01T16:37:09;1.97;;;1.27;;
62788;SDS011;66401;42.016;21.454;2023-04-01T16:39:47;3.03;;;1.40;;
62788;SDS011;66401;42.016;21.454;2023-04-01T16:45:06;1.73;;;1.50;;
62788;SDS011;66401;42.016;21.454;2023-04-01T16:58:48;2.90;;;1.60;;
62788;SDS011;66401;42.016;21.454;2023-04-01T17:01:29;1.83;;;1.73;;
62788;SDS011;66401;42.016;21.454;2023-04-01T17:04:08;3.47;;;1.67;;
62788;SDS011;66401;42.016;21.454;2023-04-01T17:06:49;2.50;;;1.87;;
62788;SDS011;66401;42.016;21.454;2023-04-01T17:17:10;2.07;;;1.33;;
62788;SDS011;66401;42.016;21.454;2023-04-01T17:19:57;1.37;;;1.20;;
62788;SDS011;66401;42.016;21.454;2023-04-01T17:23:01;2.27;;;0.97;;
62788;SDS011;66401;42.016;21.454;2023-04-01T17:36:12;3.10;;;1.60;;
62788;SDS011;66401;42.016;21.454;2023-04-01T17:50:00;2.13;;;1.57;;
62788;SDS011;66401;42.016;21.454;2023-04-01T17:57:55;3.10;;;2.03;;
62788;SDS011;66401;42.016;21.454;2023-04-01T18:00:33;2.67;;;1.53;;
62788;SDS011;66401;42.016;21.454;2023-04-01T18:14:35;1.83;;;1.53;;
62788;SDS011;66401;42.016;21.454;2023-04-01T18:20:02;1.60;;;1.50;;
62788;SDS011;66401;42.016;21.454;2023-04-01T18:22:55;1.47;;;1.33;;
62788;SDS011;66401;42.016;21.454;2023-04-01T18:25:32;2.73;;;1.50;;
62788;SDS011;66401;42.016;21.454;2023-04-01T18:30:56;2.90;;;1.40;;
62788;SDS011;66401;42.016;21.454;2023-04-01T18:33:34;1.67;;;1.57;;
62788;SDS011;66401;42.016;21.454;2023-04-01T18:38:34;1.53;;;1.43;;
62788;SDS011;66401;42.016;21.454;2023-04-01T18:44:28;1.77;;;1.67;;
62788;SDS011;66401;42.016;21.454;2023-04-01T18:49:43;2.20;;;2.00;;
62788;SDS011;66401;42.016;21.454;2023-04-01T18:54:49;1.80;;;1.40;;
62788;SDS011;66401;42.016;21.454;2023-04-01T18:57:21;1.60;;;1.50;;
62788;SDS011;66401;42.016;21.454;2023-04-01T18:59:53;1.70;;;1.20;;
62788;SDS011;66401;42.016;21.454;2023-04-01T19:10:15;2.00;;;1.70;;
62788;SDS011;66401;42.016;21.454;2023-04-01T19:18:41;1.50;;;1.40;;
62788;SDS011;66401;42.016;21.454;2023-04-01T19:21:18;1.40;;;1.30;;
62788;SDS011;66401;42.016;21.454;2023-04-01T19:29:09;1.60;;;1.17;;
62788;SDS011;66401;42.016;21.454;2023-04-01T19:34:39;1.50;;;1.40;;
62788;SDS011;66401;42.016;21.454;2023-04-01T19:37:39;1.33;;;1.23;;
62788;SDS011;66401;42.016;21.454;2023-04-01T19:45:54;1.40;;;1.20;;
62788;SDS011;66401;42.016;21.454;2023-04-01T20:00:37;1.33;;;1.10;;
62788;SDS011;66401;42.016;21.454;2023-04-01T20:11:28;1.40;;;1.03;;
62788;SDS011;66401;42.016;21.454;2023-04-01T20:14:36;2.70;;;1.30;;
62788;SDS011;66401;42.016;21.454;2023-04-01T20:19:42;2.47;;;1.50;;
62788;SDS011;66401;42.016;21.454;2023-04-01T20:24:53;1.87;;;1.77;;
62788;SDS011;66401;42.016;21.454;2023-04-01T20:27:26;1.97;;;1.77;;
62788;SDS011;66401;42.016;21.454;2023-04-01T20:35:44;2.20;;;1.73;;
62788;SDS011;66401;42.016;21.454;2023-04-01T20:38:26;4.03;;;2.00;;
62788;SDS011;66401;42.016;21.454;2023-04-01T20:41:26;2.70;;;2.10;;
62788;SDS011;66401;42.016;21.454;2023-04-01T20:44:09;2.10;;;2.00;;
62788;SDS011;66401;42.016;21.454;2023-04-01T20:52:17;2.00;;;1.73;;
62788;SDS011;66401;42.016;21.454;2023-04-01T21:00:16;2.87;;;2.00;;
62788;SDS011;66401;42.016;21.454;2023-04-01T21:02:49;2.20;;;2.00;;
62788;SDS011;66401;42.016;21.454;2023-04-01T21:13:50;3.70;;;1.90;;
62788;SDS011;66401;42.016;21.454;2023-04-01T21:21:37;2.03;;;1.90;;
62788;SDS011;66401;42.016;21.454;2023-04-01T21:32:57;2.27;;;2.07;;
62788;SDS011;66401;42.016;21.454;2023-04-01T21:44:20;2.77;;;1.93;;
62788;SDS011;66401;42.016;21.454;2023-04-01T22:00:32;2.37;;;1.90;;
62788;SDS011;66401;42.016;21.454;2023-04-01T22:11:23;2.90;;;2.20;;
62788;SDS011;66401;42.016;21.454;2023-04-01T22:14:13;2.73;;;2.17;;
62788;SDS011;66401;42.016;21.454;2023-04-01T22:22:18;2.37;;;1.97;;
62788;SDS011;66401;42.016;21.454;2023-04-01T22:30:27;1.77;;;1.67;;
62788;SDS011;66401;42.016;21.454;2023-04-01T22:35:28;4.53;;;2.00;;
62788;SDS011;66401;42.016;21.454;2023-04-01T22:43:37;2.20;;;2.00;;
62788;SDS011;66401;42.016;21.454;2023-04-01T22:53:39;3.23;;;1.63;;
62788;SDS011;66401;42.016;21.454;2023-04-01T22:56:18;5.03;;;1.93;;
62788;SDS011;66401;42.016;21.454;2023-04-01T22:58:49;2.20;;;2.00;;
62788;SDS011;66401;42.016;21.454;2023-04-01T23:01:21;1.70;;;1.60;;
62788;SDS011;66401;42.016;21.454;2023-04-01T23:03:54;3.17;;;2.17;;
62788;SDS011;66401;42.016;21.454;2023-04-01T23:06:33;2.70;;;2.00;;
62788;SDS011;66401;42.016;21.454;2023-04-01T23:11:53;3.23;;;1.90;;
62788;SDS011;66401;42.016;21.454;2023-04-01T23:14:31;2.77;;;1.77;;
62788;SDS011;66401;42.016;21.454;2023-04-01T23:20:21;1.87;;;1.77;;
62788;SDS011;66401;42.016;21.454;2023-04-01T23:26:38;2.27;;;1.77;;
62788;SDS011;66401;42.016;21.454;2023-04-01T23:29:10;2.03;;;1.87;;
62788;SDS011;66401;42.016;21.454;2023-04-01T23:31:40;3.13;;;2.30;;
62788;SDS011;66401;42.016;21.454;2023-04-01T23:34:32;3.07;;;1.80;;
62788;SDS011;66401;42.016;21.454;2023-04-01T23:37:10;2.03;;;1.93;;
62788;SDS011;66401;42.016;21.454;2023-04-01T23:39:38;3.33;;;1.90;;
62788;SDS011;66401;42.016;21.454;2023-04-01T23:42:06;2.37;;;2.17;;
62788;SDS011;66401;42.016;21.454;2023-04-01T23:44:38;2.63;;;2.07;;
62788;SDS011;66401;42.016;21.454;2023-04-01T23:47:05;2.43;;;2.23;;
62788;SDS011;66401;42.016;21.454;2023-04-01T23:49:38;4.70;;;2.70;;
62788;SDS011;66401;42.016;21.454;2023-04-01T23:52:17;2.70;;;2.13;;
62788;SDS011;66401;42.016;21.454;2023-04-01T23:54:57;4.20;;;2.30;;
62788;SDS011;66401;42.016;21.454;2023-04-01T23:57:33;4.33;;;2.50;;
